Time;durP1;ratioP1;P1;durP2;ratioP2;P2;SDS_P1;SDS_P2;PMS_P1;PMS_P2;Temp;Humidity;BMP_temperature;BMP_pressure;BME280_temperature;BME280_humidity;BME280_pressure;Samples;Min_cycle;Max_cycle;Signal;HPM_P1;HPM_P2
2023/09/02 00:01:24;;;;;;;8.30;5.40;;;;;;;15.78;75.36;100233.78;30864603;28;101402;-65
2023/09/02 00:16:24;;;;;;;8.63;5.47;;;;;;;15.82;75.58;100227.00;30885059;28;107864;-65
2023/09/02 00:31:26;;;;;;;7.82;5.50;;;;;;;15.84;76.37;100234.84;30870955;28;97692;-69
2023/09/02 00:46:26;;;;;;;8.47;6.30;;;;;;;15.90;76.66;100240.25;30865769;28;99212;-70
2023/09/02 01:01:28;;;;;;;13.20;6.13;;;;;;;15.91;76.95;100251.84;30864514;28;97151;-71
2023/09/02 01:16:29;;;;;;;;;;;;;;;15.93;77.86;100265.06;30861661;28;99154;-76
2023/09/02 01:31:31;;;;;;;9.45;5.95;;;;;;;16.11;77.75;100272.53;30853920;28;96693;-70
2023/09/02 01:46:31;;;;;;;;;;;;;;;16.31;78.14;100275.25;30850483;28;97219;-73
2023/09/02 02:01:34;;;;;;;8.48;6.30;;;;;;;16.24;77.74;100286.81;30849800;28;96778;-77
2023/09/02 02:16:34;;;;;;;8.20;6.47;;;;;;;16.18;78.12;100295.69;30847158;28;96734;-74
2023/09/02 02:31:36;;;;;;;10.52;6.82;;;;;;;16.24;78.26;100291.38;30844159;28;109689;-75
2023/09/02 02:46:36;;;;;;;;;;;;;;;16.10;78.63;100303.94;30843917;28;99069;-67
2023/09/02 03:01:37;;;;;;;11.75;6.88;;;;;;;15.99;78.39;100304.53;30844422;28;97955;-69
2023/09/02 03:16:37;;;;;;;10.63;8.13;;;;;;;16.03;78.83;100324.59;30841929;28;110288;-80
2023/09/02 03:31:37;;;;;;;10.00;7.25;;;;;;;16.02;79.47;100323.78;30840556;28;96637;-74
2023/09/02 03:46:38;;;;;;;10.63;7.85;;;;;;;15.98;79.42;100333.28;30837959;28;97834;-71
2023/09/02 04:01:38;;;;;;;9.93;8.10;;;;;;;15.69;80.05;100355.84;30837469;28;103371;-73
2023/09/02 04:16:38;;;;;;;8.48;6.50;;;;;;;15.84;80.22;100353.06;30837478;28;97546;-75
2023/09/02 04:31:39;;;;;;;9.93;6.40;;;;;;;15.74;79.63;100375.69;30836998;28;97655;-65
2023/09/02 04:46:39;;;;;;;9.68;6.47;;;;;;;15.72;80.09;100393.88;30835587;28;96704;-67
2023/09/02 05:01:39;;;;;;;12.25;7.00;;;;;;;15.65;79.96;100403.78;30845869;28;97098;-60
2023/09/02 05:16:40;;;;;;;8.27;7.47;;;;;;;15.89;80.12;100410.50;30854580;28;108717;-65
2023/09/02 05:31:40;;;;;;;9.68;7.30;;;;;;;16.17;79.77;100419.50;30852454;28;110482;-72
2023/09/02 05:46:40;;;;;;;9.05;6.35;;;;;;;16.45;80.34;100432.84;30854685;28;105892;-75
2023/09/02 06:01:43;;;;;;;8.65;5.13;;;;;;;17.61;79.87;100444.28;30850164;28;97271;-61
2023/09/02 06:16:43;;;;;;;5.47;3.80;;;;;;;18.63;78.07;100450.94;30845300;28;97162;-77
2023/09/02 06:31:43;;;;;;;7.00;4.40;;;;;;;19.70;76.06;100455.50;30843198;28;108769;-76
2023/09/02 06:46:44;;;;;;;11.63;5.45;;;;;;;19.61;74.14;100466.59;30842181;28;96808;-64
2023/09/02 07:01:44;;;;;;;5.50;4.60;;;;;;;19.40;73.63;100484.03;30843426;28;97607;-66
2023/09/02 07:16:44;;;;;;;5.23;3.70;;;;;;;20.95;73.36;100496.59;30840862;28;97315;-72
2023/09/02 07:31:45;;;;;;;3.70;2.93;;;;;;;22.52;69.54;100496.06;30838061;28;112482;-74
2023/09/02 07:46:45;;;;;;;;;;;;;;;23.37;64.57;100507.06;30837571;28;96876;-71
2023/09/02 08:01:45;;;;;;;4.70;3.50;;;;;;;22.95;64.30;100516.44;30838283;28;96784;-65
2023/09/02 08:16:46;;;;;;;5.07;3.15;;;;;;;24.23;62.77;100538.50;30836272;28;97174;-80
2023/09/02 08:31:52;;;;;;;3.10;2.60;;;;;;;26.18;57.91;100553.09;30840351;28;96889;-73
2023/09/02 08:46:53;;;;;;;5.20;2.10;;;;;;;26.73;55.13;100551.97;30855337;28;97528;-75
2023/09/02 09:01:54;;;;;;;2.23;1.50;;;;;;;28.78;46.49;100564.53;30853189;28;97865;-67
2023/09/02 09:16:56;;;;;;;3.33;1.50;;;;;;;29.29;43.39;100579.81;30852096;28;97976;-71
2023/09/02 09:32:11;;;;;;;2.07;1.20;;;;;;;31.78;38.17;100581.09;30850533;28;97581;-71
2023/09/02 09:47:11;;;;;;;2.90;1.50;;;;;;;38.03;32.30;100589.91;30849716;28;97642;-75
2023/09/02 10:02:17;;;;;;;4.18;1.40;;;;;;;31.97;35.34;100600.28;30848994;28;97603;-76
2023/09/02 10:17:18;;;;;;;2.43;1.87;;;;;;;28.79;39.19;100612.78;30847076;28;97304;-80
2023/09/02 10:32:20;;;;;;;3.33;1.70;;;;;;;28.66;40.41;100613.38;30846369;28;97232;-68
2023/09/02 10:47:21;;;;;;;3.77;1.60;;;;;;;33.71;35.93;100636.22;30843867;28;96821;-82
2023/09/02 11:02:44;;;;;;;2.55;1.30;;;;;;;36.03;30.99;100634.78;30841484;28;105893;-70
2023/09/02 11:17:44;;;;;;;1.70;1.13;;;;;;;39.01;26.29;100626.28;30840499;28;96766;-64
2023/09/02 11:32:45;;;;;;;1.77;1.20;;;;;;;38.27;26.28;100638.34;30840570;28;96734;-64
2023/09/02 11:47:48;;;;;;;3.00;1.10;;;;;;;35.74;28.30;100634.34;30839227;28;96867;-80
2023/09/02 12:02:50;;;;;;;3.83;1.57;;;;;;;33.42;29.47;100644.97;30839998;28;97396;-71
2023/09/02 12:17:51;;;;;;;3.27;1.50;;;;;;;33.37;31.14;100627.38;30859694;28;97637;-76
2023/09/02 12:32:51;;;;;;;2.63;1.55;;;;;;;32.97;31.28;100629.16;30856727;28;97036;-71
2023/09/02 12:47:55;;;;;;;4.03;1.73;;;;;;;33.69;30.33;100617.19;30854105;28;97439;-64
2023/09/02 13:02:56;;;;;;;7.40;1.57;;;;;;;33.73;29.92;100618.19;30853535;28;97296;-75
2023/09/02 13:17:57;;;;;;;3.10;1.70;;;;;;;33.37;30.27;100627.38;30851461;28;97429;-67
2023/09/02 13:32:58;;;;;;;3.30;1.53;;;;;;;32.62;30.36;100632.38;30850779;28;96813;-68
2023/09/02 13:47:59;;;;;;;4.20;1.47;;;;;;;31.63;31.82;100635.34;30850112;28;96853;-69
2023/09/02 14:03:00;;;;;;;3.25;1.15;;;;;;;31.04;31.43;100634.84;30848504;28;97322;-65
2023/09/02 14:18:00;;;;;;;4.43;1.48;;;;;;;30.13;32.94;100621.94;30846200;28;97405;-67
2023/09/02 14:33:00;;;;;;;3.63;1.77;;;;;;;28.54;35.18;100625.47;30843792;28;96736;-68
2023/09/02 14:48:01;;;;;;;3.58;1.90;;;;;;;27.90;35.84;100629.72;30843035;28;112200;-78
2023/09/02 15:03:05;;;;;;;3.95;2.00;;;;;;;26.82;37.25;100632.34;30842800;28;97159;-72
2023/09/02 15:18:27;;;;;;;2.67;1.80;;;;;;;26.05;38.75;100634.66;30840904;28;96804;-69
2023/09/02 15:33:27;;;;;;;2.80;1.73;;;;;;;25.42;39.80;100648.84;30841049;28;97174;-80
2023/09/02 15:48:27;;;;;;;3.75;2.33;;;;;;;24.84;41.56;100657.47;30837608;28;113946;-75
2023/09/02 16:03:29;;;;;;;5.40;2.93;;;;;;;24.14;43.34;100654.34;30836756;28;97425;-63
2023/09/02 16:18:29;;;;;;;5.95;3.25;;;;;;;23.69;44.61;100656.06;30836173;28;97204;-62
2023/09/02 16:33:31;;;;;;;3.42;2.70;;;;;;;23.11;46.20;100639.78;30834888;28;96754;-63
2023/09/02 16:48:32;;;;;;;4.07;3.00;;;;;;;22.77;47.64;100669.56;30833984;28;97572;-64
2023/09/02 17:03:34;;;;;;;7.35;3.70;;;;;;;22.34;49.23;100684.34;30853148;28;97448;-65
2023/09/02 17:18:35;;;;;;;7.70;4.23;;;;;;;21.81;50.94;100686.03;30853324;28;97227;-61
2023/09/02 17:33:37;;;;;;;8.90;4.27;;;;;;;21.42;52.24;100682.81;30850885;28;97257;-70
2023/09/02 17:48:37;;;;;;;6.63;4.70;;;;;;;20.96;53.50;100675.09;30848939;28;97169;-72
2023/09/02 18:03:38;;;;;;;8.23;5.80;;;;;;;20.46;54.85;100691.44;30847080;28;96713;-69
2023/09/02 18:18:38;;;;;;;11.37;6.13;;;;;;;20.06;56.52;100716.19;30846925;28;97333;-79
2023/09/02 18:33:39;;;;;;;9.77;5.70;;;;;;;19.91;58.06;100728.13;30844653;28;112775;-75
2023/09/02 18:48:41;;;;;;;8.57;5.97;;;;;;;19.84;59.19;100734.66;30844338;28;97110;-76
2023/09/02 19:03:43;;;;;;;9.77;7.13;;;;;;;19.62;60.36;100751.97;30841423;28;97403;-79
2023/09/02 19:18:43;;;;;;;9.93;8.60;;;;;;;19.36;61.61;100752.13;30841429;28;97188;-77
2023/09/02 19:33:45;;;;;;;14.43;8.52;;;;;;;19.45;62.56;100765.19;30839114;28;97153;-77
2023/09/02 19:48:45;;;;;;;13.80;9.83;;;;;;;19.44;62.80;100781.59;30835933;28;97363;-69
2023/09/02 20:03:45;;;;;;;12.20;9.63;;;;;;;19.20;63.78;100789.38;30835761;28;112425;-77
2023/09/02 20:18:46;;;;;;;10.18;8.90;;;;;;;18.98;64.27;100790.69;30837080;28;97511;-66
2023/09/02 20:33:49;;;;;;;16.17;12.05;;;;;;;18.88;65.20;100800.06;30849706;28;97870;-72
2023/09/02 20:48:51;;;;;;;17.83;11.53;;;;;;;18.89;65.81;100796.31;30853776;28;97097;-74
2023/09/02 21:03:51;;;;;;;13.23;9.63;;;;;;;18.88;66.06;100796.53;30852946;28;96696;-67
2023/09/02 21:18:52;;;;;;;16.52;9.15;;;;;;;18.77;66.42;100789.88;30852235;28;96678;-62
2023/09/02 21:33:53;;;;;;;17.08;10.45;;;;;;;18.59;67.15;100788.63;30851280;28;96878;-65
2023/09/02 21:48:54;;;;;;;;;;;;;;;18.56;67.55;100790.91;30849342;28;96958;-70
2023/09/02 22:03:54;;;;;;;14.88;11.30;;;;;;;18.60;67.99;100787.59;30850124;28;96705;-62
2023/09/02 22:18:54;;;;;;;14.15;10.07;;;;;;;18.57;68.24;100792.59;30847424;28;97928;-77
2023/09/02 22:33:55;;;;;;;12.00;8.60;;;;;;;18.47;68.50;100790.31;30846336;28;98566;-62
2023/09/02 22:48:55;;;;;;;11.77;8.80;;;;;;;18.46;68.71;100791.34;30843518;28;96778;-62
2023/09/02 23:03:55;;;;;;;11.95;8.23;;;;;;;18.41;68.99;100794.66;30842957;28;96722;-70
2023/09/02 23:18:56;;;;;;;9.90;8.55;;;;;;;18.22;69.53;100804.41;30842265;28;101155;-72
2023/09/02 23:33:56;;;;;;;9.65;7.65;;;;;;;18.07;69.88;100801.91;30840466;28;113210;-71
2023/09/02 23:48:56;;;;;;;10.48;8.70;;;;;;;17.89;70.29;100809.69;30839467;28;113152;-76
